Terminal Aerodrome Forecast
Issued by NWS

Home | Current Version | Previous Version | Graphics & Text | Print | Product List | Glossary On
Versions: 1 2 3 4 5 6 7 8 9 10 11 12 13 14
000
FTUS43 KMPX 291120
TAFRWF
TAF
KRWF 291120Z 2912/3012 02006KT P6SM BKN250
     FM291600 05011G17KT P6SM SCT150 BKN250
     FM300100 05009KT P6SM OVC100
     FM300800 05011G17KT P6SM -SHRA BKN050=

USA.gov is the U.S. government's official web portal to all federal, state and local government web resources and services.